Station: St George  

  Atmospheric Gas Attenuation - ITU Rec 676-11   ----------------- dB/100km -----------------
Date Time Temp RH % AH g/m3 Dew Point Wind Direction Speed kph Gust kph Barometer mB Rainfall Since 9am 24GHz 47GHz 76GHz 122GHz 134GHz 241GHz
08/05 12:30 17.4 34 5.04 1.4 17 28 1023.7 0 11.9 20.1 25.7 66.7 52.6 178.1
08/05 12:20 17.5 35 5.22 1.9 22 24 1023.8 0 12.3 20.3 26.3 68.2 54.5 184.9
08/05 12:10 16.1 35 4.8 0.7 24 28 1024 0 11.5 20.0 25.3 65.6 50.8 171.5
08/05 12:00 16.9 35 5.03 1.4 20 32 1024.2 0 11.9 20.2 25.8 67.0 52.8 178.8
08/05 11:50 16.2 35 4.83 0.7 22 24 1024.4 0 11.5 20.1 25.4 65.8 51.1 172.5
08/05 11:40 16.2 37 5.1 1.5 24 28 1024.6 0 12.1 20.4 26.3 68.3 54.1 183.2
08/05 11:30 16.1 37 5.07 1.4 20 35 1024.7 0 12.0 20.4 26.2 68.1 53.8 182.2
08/05 11:20 15.9 38 5.15 1.6 28 32 1024.8 0 12.2 20.6 26.6 69.0 54.9 185.9
08/05 11:10 15.7 38 5.08 1.4 20 24 1025 0 12.1 20.5 26.4 68.5 54.2 183.6
08/05 11:00 15 38 4.87 0.8 24 32 1025.2 0 11.6 20.4 25.9 67.2 52.3 176.8
08/05 10:50 15.1 38 4.9 0.9 26 28 1025.2 0 11.7 20.4 26.0 67.4 52.6 177.8
08/05 10:40 15.1 39 5.03 1.3 17 22 1025.4 0 12.0 20.6 26.5 68.6 54.1 183.0
08/05 10:30 15.1 39 5.03 1.3 20 35 1025.5 0 12.0 20.6 26.5 68.6 54.1 183.0
08/05 10:20 14.5 39 4.85 0.7 22 24 1025.4 0 11.6 20.5 26.0 67.5 52.4 177.1
08/05 10:10 14.3 40 4.91 0.9 26 32 1025.4 0 11.7 20.6 26.3 68.2 53.2 179.9
08/05 10:00 14.4 41 5.07 1.3 26 35 1025.7 0 12.1 20.8 26.8 69.6 55.0 186.2
08/05 09:50 13.7 42 4.97 1 28 33 1025.7 0 11.9 20.9 26.7 69.3 54.3 183.7
08/05 09:40 13.6 42 4.94 0.9 26 30 1025.4 0 11.8 20.8 26.6 69.0 54.0 182.7
08/05 09:30 13.3 44 5.08 1.3 24 35 1025.6 0 12.1 21.1 27.2 70.6 55.9 189.1
08/05 09:20 12.7 44 4.9 0.8 30 39 1025.5 0 11.8 21.0 26.8 69.4 54.2 183.1
08/05 09:10 12.5 45 4.95 0.9 24 30 1025.5 0 11.9 21.1 27.0 70.1 54.9 185.6
08/05 09:00 11.9 46 4.87 0.7 22 32 1025.6 0 11.7 21.1 26.9 69.8 54.4 183.7
08/05 08:50 11.9 47 4.98 1 19 22 1025.4 0 12.0 21.3 27.3 70.9 55.7 188.2
08/05 08:40 11.2 48 4.87 0.6 19 22 1025.4 0 11.8 21.3 27.2 70.4 54.8 185.2
08/05 08:30 11 47 4.71 0.1 19 26 1025.5 0 11.4 21.1 26.6 69.1 53.1 179.0
08/05 08:20 10.4 49 4.72 0.2 24 28 1025.3 0 11.5 21.2 26.9 69.7 53.6 180.7
08/05 08:10 9.6 49 4.49 -0.6 17 20 1025.3 0 11.0 21.1 26.3 68.1 51.4 172.8
08/05 08:00 9.2 52 4.64 -0.1 9 15 1025.3 0 11.3 21.4 27.0 69.9 53.4 180.0
08/05 07:50 8.4 54 4.58 -0.4 9 13 1025.2 0 11.2 21.5 27.0 70.0 53.2 179.2
08/05 07:40 8 57 4.71 0 9 11 1025.2 0 11.5 21.8 27.6 71.7 55.1 185.7
08/05 07:30 7.5 58 4.64 -0.2 11 15 1025.2 0 11.4 21.8 27.5 71.4 54.6 183.8
08/05 07:20 6.9 60 4.62 -0.3 11 13 1024.9 0 11.4 21.9 27.7 71.7 54.7 184.3
08/05 07:10 6.3 62 4.59 -0.4 11 13 1024.9 0 11.3 22.0 27.7 72.0 54.8 184.3
08/05 07:00 6 63 4.58 -0.5 13 15 1024.8 0 11.3 22.0 27.8 72.1 54.9 184.6
08/05 06:50 5.7 63 4.49 -0.8 11 13 1024.7 0 11.1 22.0 27.6 71.5 53.9 181.2
08/05 06:40 5.8 63 4.52 -0.7 13 15 1024.7 0 11.2 22.0 27.6 71.7 54.2 182.3
08/05 06:30 5.9 61 4.4 -1 15 19 1024.6 0 10.9 21.8 27.2 70.4 52.7 176.8
08/05 06:20 6 62 4.5 -0.7 13 17 1024.6 0 11.1 21.9 27.5 71.3 53.8 181.0
08/05 06:10 5.8 62 4.44 -0.9 11 13 1024.7 0 11.0 21.9 27.3 70.9 53.2 178.8
08/05 06:00 6.2 60 4.41 -1 15 17 1024.6 0 10.9 21.7 27.1 70.2 52.6 176.6
08/05 05:50 6 61 4.43 -0.9 15 17 1024.6 0 11.0 21.8 27.2 70.6 53.0 177.9
08/05 05:40 6 60 4.36 -1.2 15 15 1024.5 0 10.8 21.7 27.0 69.9 52.1 174.8
08/05 05:30 6.2 59 4.34 -1.2 13 17 1024.6 0 10.8 21.6 26.8 69.5 51.7 173.5
08/05 05:20 5.9 59 4.26 -1.5 13 15 1024.6 0 10.6 21.6 26.6 69.0 50.9 170.7
08/05 05:10 6.5 56 4.2 -1.6 13 15 1024.5 0 10.5 21.3 26.2 67.9 49.8 166.8
08/05 05:00 6.9 55 4.24 -1.5 15 20 1024.4 0 10.6 21.3 26.2 67.9 50.0 167.7
08/05 04:50 7 54 4.19 -1.7 15 19 1024.3 0 10.4 21.2 26.0 67.3 49.3 165.3
08/05 04:40 7 54 4.19 -1.7 17 19 1024.2 0 10.4 21.2 26.0 67.3 49.3 165.3
08/05 04:30 7.1 55 4.29 -1.3 17 22 1024.1 0 10.7 21.3 26.3 68.2 50.5 169.4
08/05 04:20 7.3 53 4.19 -1.6 19 22 1024 0 10.4 21.1 25.9 67.0 49.1 164.7
08/05 04:10 7.3 53 4.19 -1.6 17 20 1024 0 10.4 21.1 25.9 67.0 49.1 164.7
08/05 04:00 7.5 52 4.16 -1.7 19 24 1024.1 0 10.4 21.0 25.7 66.6 48.7 163.0
08/05 03:50 7.9 51 4.19 -1.6 20 24 1024 0 10.4 21.0 25.7 66.5 48.8 163.4
08/05 03:40 7.7 51 4.14 -1.8 17 19 1023.9 0 10.3 20.9 25.6 66.2 48.3 161.7
08/05 03:30 7.8 51 4.16 -1.7 19 24 1023.9 0 10.4 21.0 25.6 66.3 48.5 162.4
08/05 03:20 8 51 4.22 -1.5 20 22 1023.8 0 10.5 21.0 25.8 66.7 49.1 164.5
08/05 03:10 8.1 49 4.08 -2 19 22 1023.7 0 10.2 20.8 25.2 65.3 47.3 158.4
08/05 03:00 8.4 48 4.07 -2 20 28 1023.7 0 10.1 20.7 25.1 65.0 47.0 157.4
08/05 02:50 8.5 48 4.1 -1.9 22 28 1023.6 0 10.2 20.7 25.2 65.2 47.3 158.4
08/05 02:40 8.5 48 4.1 -1.9 20 24 1023.7 0 10.2 20.7 25.2 65.2 47.3 158.4
08/05 02:30 8.6 48 4.13 -1.8 19 28 1023.7 0 10.3 20.7 25.3 65.4 47.6 159.5
08/05 02:20 8.6 47 4.04 -2.1 17 19 1023.7 0 10.1 20.6 24.9 64.5 46.6 155.7
08/05 02:10 8.7 47 4.07 -2 15 17 1023.7 0 10.1 20.6 25.0 64.7 46.8 156.8
08/05 02:00 8.9 46 4.03 -2.1 19 24 1023.7 0 10.0 20.5 24.8 64.2 46.3 154.7
08/05 01:50 9 46 4.06 -2 15 19 1023.8 0 10.1 20.5 24.9 64.4 46.6 155.8
08/05 01:40 9 46 4.06 -2 17 19 1023.7 0 10.1 20.5 24.9 64.4 46.6 155.8
08/05 01:30 9.1 46 4.08 -1.9 17 22 1023.6 0 10.1 20.5 24.9 64.5 46.7 156.4
08/05 01:20 8.9 46 4.03 -2.1 17 20 1023.6 0 10.0 20.5 24.8 64.2 46.3 154.7
08/05 01:10 8.8 47 4.09 -1.9 11 13 1023.8 0 10.2 20.6 25.1 64.8 47.0 157.4
08/05 01:00 9.1 47 4.17 -1.6 17 20 1023.8 0 10.3 20.7 25.3 65.4 47.8 160.2
08/05 00:50 9.6 45 4.12 -1.7 19 20 1023.8 0 10.2 20.5 24.9 64.5 46.9 157.1
08/05 00:40 9.7 45 4.15 -1.6 22 26 1023.7 0 10.3 20.5 25.0 64.7 47.2 158.2
08/05 00:30 9.9 44 4.11 -1.8 22 30 1023.8 0 10.2 20.4 24.8 64.1 46.6 156.1
08/05 00:20 9.9 45 4.2 -1.5 24 28 1023.7 0 10.4 20.5 25.1 65.0 47.7 159.8
08/05 00:10 9.4 48 4.34 -1 17 19 1023.8 0 10.7 20.9 25.8 66.7 49.6 166.7
08/05 00:00 9.7 46 4.24 -1.3 17 22 1023.8 0 10.5 20.6 25.3 65.5 48.3 161.9
07/05 23:50 9.9 46 4.3 -1.2 17 17 1023.9 0 10.6 20.7 25.5 66.0 48.9 164.0
07/05 23:40 10.2 46 4.38 -0.9 19 22 1023.9 0 10.7 20.7 25.7 66.5 49.6 166.7
07/05 23:30 9.6 47 4.31 -1.1 13 17 1023.8 0 10.6 20.8 25.6 66.3 49.2 165.0
07/05 23:20 10.3 45 4.31 -1.1 15 19 1023.8 0 10.6 20.6 25.4 65.7 48.7 163.6
07/05 23:10 10.4 45 4.34 -1 17 17 1023.9 0 10.7 20.6 25.5 65.9 49.0 164.7
07/05 23:00 10.7 44 4.32 -1 17 20 1023.9 0 10.6 20.5 25.3 65.5 48.6 163.2
07/05 22:50 10.8 44 4.35 -0.9 15 17 1023.9 0 10.7 20.6 25.4 65.7 48.9 164.3
07/05 22:40 11 44 4.41 -0.8 15 17 1024 0 10.8 20.6 25.5 66.1 49.5 166.3
07/05 22:30 11.3 44 4.49 -0.5 17 24 1024 0 10.9 20.6 25.7 66.6 50.2 169.0
07/05 22:20 11.5 44 4.55 -0.3 19 20 1023.9 0 11.1 20.7 25.9 67.0 50.8 171.1
07/05 22:10 11.5 45 4.65 0 20 24 1023.8 0 11.3 20.8 26.2 68.0 52.0 175.2
07/05 22:00 11.7 46 4.81 0.5 19 22 1023.9 0 11.6 21.0 26.7 69.3 53.7 181.4
07/05 21:50 12.1 45 4.83 0.5 22 24 1023.8 0 11.6 20.9 26.7 69.2 53.7 181.3
07/05 21:40 12.4 44 4.81 0.5 22 24 1023.8 0 11.6 20.9 26.5 68.7 53.2 179.8
07/05 21:30 12.6 43 4.76 0.4 20 32 1023.9 0 11.5 20.7 26.3 68.1 52.5 177.3
07/05 21:20 13.2 42 4.82 0.6 26 30 1023.8 0 11.6 20.7 26.3 68.1 52.8 178.4
07/05 21:10 13.2 43 4.94 0.9 19 20 1023.6 0 11.8 20.9 26.7 69.2 54.2 183.3
07/05 21:00 13.3 45 5.2 1.6 24 32 1023.5 0 12.4 21.2 27.6 71.6 57.2 193.7
07/05 20:50 13.6 47 5.53 2.5 20 24 1023.2 0 13.1 21.6 28.6 74.4 60.8 206.6
07/05 20:40 13.7 50 5.92 3.5 22 28 1023.1 0 13.9 22.1 30.0 78.1 65.4 222.7
07/05 20:30 13.6 53 6.24 4.2 19 24 1023 0 14.6 22.6 31.2 81.3 69.3 236.5
07/05 20:20 13.7 55 6.51 4.8 19 20 1022.9 0 15.1 23.0 32.2 83.9 72.6 247.8
07/05 20:10 14 55 6.63 5.1 20 30 1022.9 0 15.4 23.1 32.5 84.8 73.8 252.0
07/05 20:00 14.2 56 6.84 5.6 19 26 1022.7 0 15.8 23.4 33.2 86.6 76.1 260.4

Last Refresh: 08-May-2026 12:08:28

Bureau of Meteorology